PAL124 RPLL-KSEA
Flight info
| Callsign | PAL124 |
|---|---|
| Flight time | N/A |
| Altitude | 35000 |
| Route | JOM2R JOM A590 BIXAK/N0492F370 A590 BUBDO Y527 DOMBI Y57 POROT Y809 AVBET OTR9 EMRON DCT 42N160E 45N170E/N0495F390 48N180E 51N170W 53N160W 54N150W/N0482F410 53N140W DCT NUDGE DCT TAMRU DCT DOLFF DCT TOU MARNR8 |
| Aircraft | A359/H-SDE2E3GHIJ3J4J5LM1ORWXY/LB1D1 |
Departure
| Time | 2026-05-03 22:43 |
|---|---|
| Airport | Ninoy Aquino International Airport (RPLL) |
Arrival
| Time | N/A |
|---|---|
| Airport | Seattle–Tacoma International Airport (KSEA) |
| Time | Latitude | Longitude | Altitude | Speed | Heading |
|---|---|---|---|---|---|
| 2026-05-03 22:29 | 14.50462 | 121.00585 | 75 ft | 0 kts | 11° |
| 2026-05-03 22:35 | 14.50451 | 121.00583 | 66 ft | 2 kts | 9° |
| 2026-05-03 22:35 | 14.50435 | 121.00581 | 71 ft | 2 kts | 5° |
| 2026-05-03 22:36 | 14.50418 | 121.00580 | 66 ft | 2 kts | 0° |
| 2026-05-03 22:36 | 14.50402 | 121.00581 | 64 ft | 2 kts | 351° |
| 2026-05-03 22:36 | 14.50385 | 121.00585 | 64 ft | 2 kts | 336° |
| 2026-05-03 22:36 | 14.50371 | 121.00594 | 64 ft | 2 kts | 311° |
| 2026-05-03 22:37 | 14.50364 | 121.00609 | 68 ft | 2 kts | 276° |
| 2026-05-03 22:37 | 14.50364 | 121.00621 | 64 ft | 1 kts | 248° |
| 2026-05-03 22:37 | 14.50365 | 121.00623 | 64 ft | 0 kts | 245° |
| 2026-05-03 22:39 | 14.50364 | 121.00622 | 75 ft | 0 kts | 245° |
| 2026-05-03 22:39 | 14.50348 | 121.00594 | 61 ft | 9 kts | 239° |
| 2026-05-03 22:39 | 14.50310 | 121.00525 | 64 ft | 13 kts | 240° |
| 2026-05-03 22:40 | 14.50265 | 121.00445 | 66 ft | 13 kts | 240° |
| 2026-05-03 22:40 | 14.50217 | 121.00361 | 64 ft | 13 kts | 232° |
| 2026-05-03 22:40 | 14.50139 | 121.00332 | 66 ft | 12 kts | 202° |
| 2026-05-03 22:40 | 14.50083 | 121.00267 | 66 ft | 14 kts | 239° |
| 2026-05-03 22:41 | 14.50032 | 121.00176 | 64 ft | 15 kts | 240° |
| 2026-05-03 22:41 | 14.49980 | 121.00081 | 65 ft | 15 kts | 240° |
| 2026-05-03 22:41 | 14.49921 | 120.99985 | 66 ft | 15 kts | 223° |
| 2026-05-03 22:41 | 14.49829 | 120.99991 | 70 ft | 14 kts | 141° |
| 2026-05-03 22:42 | 14.49828 | 121.00084 | 71 ft | 12 kts | 61° |
| 2026-05-03 22:42 | 14.49835 | 121.00095 | 65 ft | 0 kts | 60° |
| 2026-05-03 22:42 | 14.49850 | 121.00122 | 68 ft | 20 kts | 59° |
| 2026-05-03 22:42 | 14.50033 | 121.00450 | 65 ft | 83 kts | 60° |
| 2026-05-03 22:43 | 14.50412 | 121.01135 | 68 ft | 135 kts | 60° |
| 2026-05-03 22:43 | 14.50959 | 121.02106 | 221 ft | 164 kts | 61° |
| 2026-05-03 22:43 | 14.51490 | 121.03049 | 1009 ft | 149 kts | 61° |
| 2026-05-03 22:43 | 14.52023 | 121.04020 | 1335 ft | 162 kts | 61° |
| 2026-05-03 22:44 | 14.52595 | 121.05064 | 1580 ft | 176 kts | 60° |
| 2026-05-03 22:44 | 14.53229 | 121.06208 | 1829 ft | 192 kts | 60° |
| 2026-05-03 22:44 | 14.53917 | 121.07448 | 2088 ft | 207 kts | 60° |
| 2026-05-03 22:44 | 14.54666 | 121.08801 | 2344 ft | 226 kts | 60° |
| 2026-05-03 22:45 | 14.55458 | 121.10270 | 2700 ft | 238 kts | 62° |
| 2026-05-03 22:45 | 14.56190 | 121.11833 | 3166 ft | 247 kts | 63° |
| 2026-05-03 22:45 | 14.56967 | 121.13415 | 3776 ft | 249 kts | 67° |
| 2026-05-03 22:45 | 14.57398 | 121.15157 | 4365 ft | 252 kts | 81° |
| 2026-05-03 22:46 | 14.57627 | 121.16959 | 4877 ft | 256 kts | 82° |
| 2026-05-03 22:46 | 14.57840 | 121.18807 | 5435 ft | 261 kts | 82° |
| 2026-05-03 22:46 | 14.58056 | 121.20683 | 6018 ft | 264 kts | 82° |
| 2026-05-03 22:46 | 14.58272 | 121.22581 | 6554 ft | 268 kts | 82° |
| 2026-05-03 22:47 | 14.58492 | 121.24496 | 7116 ft | 270 kts | 82° |
| 2026-05-03 22:47 | 14.58717 | 121.26435 | 7634 ft | 274 kts | 82° |
| 2026-05-03 22:47 | 14.58939 | 121.28396 | 8200 ft | 276 kts | 82° |
| 2026-05-03 22:47 | 14.59162 | 121.30380 | 8769 ft | 279 kts | 82° |
| 2026-05-03 22:48 | 14.59389 | 121.32391 | 9308 ft | 283 kts | 83° |
| 2026-05-03 22:48 | 14.59615 | 121.34406 | 9896 ft | 285 kts | 83° |
| 2026-05-03 22:48 | 14.59845 | 121.36446 | 10334 ft | 292 kts | 83° |
| 2026-05-03 22:48 | 14.60084 | 121.38573 | 10600 ft | 305 kts | 83° |
| 2026-05-03 22:49 | 14.60333 | 121.40785 | 10902 ft | 317 kts | 83° |
| 2026-05-03 22:49 | 14.60593 | 121.43106 | 11184 ft | 328 kts | 83° |
| 2026-05-03 22:49 | 14.60858 | 121.45484 | 11470 ft | 339 kts | 83° |
| 2026-05-03 22:49 | 14.61133 | 121.47941 | 11730 ft | 349 kts | 83° |
| 2026-05-03 22:50 | 14.61415 | 121.50461 | 11962 ft | 359 kts | 83° |
| 2026-05-03 22:50 | 14.61706 | 121.53057 | 12179 ft | 368 kts | 83° |
| 2026-05-03 22:50 | 14.62001 | 121.55706 | 12356 ft | 376 kts | 83° |
| 2026-05-03 22:50 | 14.62303 | 121.58423 | 12581 ft | 383 kts | 83° |
| 2026-05-03 22:51 | 14.62610 | 121.61172 | 12920 ft | 387 kts | 83° |
| 2026-05-03 22:51 | 14.62918 | 121.63945 | 13261 ft | 390 kts | 83° |
| 2026-05-03 22:51 | 14.63228 | 121.66736 | 13618 ft | 392 kts | 84° |
| 2026-05-03 22:51 | 14.63536 | 121.69511 | 13945 ft | 394 kts | 84° |
| 2026-05-03 22:52 | 14.63849 | 121.72334 | 14237 ft | 397 kts | 84° |
| 2026-05-03 22:52 | 14.64164 | 121.75182 | 14528 ft | 400 kts | 84° |
| 2026-05-03 22:52 | 14.64481 | 121.78053 | 14824 ft | 402 kts | 84° |
| 2026-05-03 22:52 | 14.64799 | 121.80927 | 15113 ft | 405 kts | 84° |
| 2026-05-03 22:53 | 14.65121 | 121.83843 | 15411 ft | 407 kts | 84° |
| 2026-05-03 22:53 | 14.65442 | 121.86754 | 15702 ft | 409 kts | 84° |
| 2026-05-03 22:53 | 14.65760 | 121.89641 | 15994 ft | 411 kts | 84° |
| 2026-05-03 22:53 | 14.66088 | 121.92624 | 16286 ft | 414 kts | 84° |
| 2026-05-03 22:54 | 14.66413 | 121.95587 | 16577 ft | 416 kts | 84° |
| 2026-05-03 22:54 | 14.66739 | 121.98555 | 16873 ft | 418 kts | 84° |
| 2026-05-03 22:54 | 14.67068 | 122.01560 | 17175 ft | 421 kts | 84° |
| 2026-05-03 22:54 | 14.67394 | 122.04532 | 17466 ft | 423 kts | 84° |
| 2026-05-03 22:55 | 14.67724 | 122.07558 | 17761 ft | 425 kts | 84° |
| 2026-05-03 22:55 | 14.68055 | 122.10587 | 18052 ft | 427 kts | 84° |
| 2026-05-03 22:55 | 14.68388 | 122.13644 | 18322 ft | 429 kts | 84° |
| 2026-05-03 22:55 | 14.68722 | 122.16705 | 18581 ft | 430 kts | 84° |
| 2026-05-03 22:56 | 14.69058 | 122.19793 | 18834 ft | 432 kts | 84° |
| 2026-05-03 22:56 | 14.69393 | 122.22880 | 19078 ft | 434 kts | 84° |
| 2026-05-03 22:56 | 14.69763 | 122.25984 | 19315 ft | 436 kts | 81° |
| 2026-05-03 22:56 | 14.70463 | 122.29040 | 19543 ft | 438 kts | 72° |
| 2026-05-03 22:57 | 14.71656 | 122.31908 | 19771 ft | 442 kts | 62° |
| 2026-05-03 22:57 | 14.73362 | 122.34559 | 19988 ft | 445 kts | 52° |
| 2026-05-03 22:57 | 14.75515 | 122.36865 | 20203 ft | 448 kts | 42° |
| 2026-05-03 22:57 | 14.77923 | 122.38919 | 20439 ft | 451 kts | 39° |
| 2026-05-03 22:58 | 14.80458 | 122.40910 | 20676 ft | 453 kts | 37° |
| 2026-05-03 22:58 | 14.83009 | 122.42841 | 20900 ft | 456 kts | 37° |
| 2026-05-03 22:58 | 14.85582 | 122.44774 | 21143 ft | 458 kts | 37° |
| 2026-05-03 22:58 | 14.88129 | 122.46700 | 21364 ft | 460 kts | 37° |
| 2026-05-03 22:59 | 14.90712 | 122.48670 | 21601 ft | 462 kts | 37° |
| 2026-05-03 22:59 | 14.93301 | 122.50662 | 21835 ft | 464 kts | 38° |
| 2026-05-03 22:59 | 14.95892 | 122.52668 | 22076 ft | 466 kts | 38° |
| 2026-05-03 22:59 | 14.98505 | 122.54696 | 22322 ft | 469 kts | 38° |
| 2026-05-03 23:00 | 15.01119 | 122.56728 | 22558 ft | 471 kts | 38° |
| 2026-05-03 23:00 | 15.03738 | 122.58765 | 22815 ft | 473 kts | 38° |
| 2026-05-03 23:00 | 15.05481 | 122.60120 | 22977 ft | 474 kts | 38° |
| 2026-05-03 23:00 | 15.09020 | 122.62872 | 23287 ft | 477 kts | 38° |
| 2026-05-03 23:01 | 15.10785 | 122.64244 | 23461 ft | 479 kts | 38° |
| 2026-05-03 23:01 | 15.14323 | 122.66996 | 23750 ft | 481 kts | 38° |
| 2026-05-03 23:01 | 15.16131 | 122.68403 | 23891 ft | 482 kts | 38° |
| 2026-05-03 23:01 | 15.18819 | 122.70493 | 24116 ft | 484 kts | 37° |
| 2026-05-03 23:02 | 15.21519 | 122.72595 | 24362 ft | 485 kts | 37° |
| 2026-05-03 23:02 | 15.25101 | 122.75383 | 24683 ft | 487 kts | 37° |
| 2026-05-03 23:02 | 15.26898 | 122.76783 | 24844 ft | 488 kts | 37° |
| 2026-05-03 23:02 | 15.29618 | 122.78902 | 25088 ft | 490 kts | 37° |
| 2026-05-03 23:03 | 15.32351 | 122.81032 | 25337 ft | 492 kts | 37° |
| 2026-05-03 23:03 | 15.35090 | 122.83168 | 25608 ft | 493 kts | 37° |
| 2026-05-03 23:03 | 15.37831 | 122.85306 | 25866 ft | 495 kts | 37° |
| 2026-05-03 23:03 | 15.40589 | 122.87457 | 26133 ft | 497 kts | 37° |
| 2026-05-03 23:04 | 15.43358 | 122.89618 | 26425 ft | 499 kts | 37° |
| 2026-05-03 23:04 | 15.46135 | 122.91787 | 26706 ft | 500 kts | 37° |
| 2026-05-03 23:04 | 15.48921 | 122.93962 | 27008 ft | 502 kts | 37° |
| 2026-05-03 23:04 | 15.51717 | 122.96147 | 27298 ft | 504 kts | 37° |
| 2026-05-03 23:05 | 15.54526 | 122.98342 | 27593 ft | 506 kts | 37° |
| 2026-05-03 23:05 | 15.57347 | 123.00547 | 27869 ft | 508 kts | 37° |
| 2026-05-03 23:05 | 15.60179 | 123.02762 | 28143 ft | 510 kts | 37° |
| 2026-05-03 23:05 | 15.62973 | 123.04948 | 28418 ft | 512 kts | 37° |
| 2026-05-03 23:06 | 15.65822 | 123.07178 | 28687 ft | 514 kts | 37° |
| 2026-05-03 23:06 | 15.68688 | 123.09421 | 28949 ft | 516 kts | 36° |
| 2026-05-03 23:06 | 15.71561 | 123.11671 | 29195 ft | 518 kts | 36° |
| 2026-05-03 23:06 | 15.74438 | 123.13925 | 29456 ft | 519 kts | 36° |
| 2026-05-03 23:07 | 15.77315 | 123.16180 | 29831 ft | 517 kts | 36° |
| 2026-05-03 23:07 | 15.80187 | 123.18432 | 30188 ft | 516 kts | 36° |
| 2026-05-03 23:07 | 15.83048 | 123.20676 | 30458 ft | 516 kts | 36° |
| 2026-05-03 23:07 | 15.85918 | 123.22929 | 30694 ft | 517 kts | 36° |
| 2026-05-03 23:08 | 15.88784 | 123.25178 | 30953 ft | 516 kts | 36° |
| 2026-05-03 23:08 | 15.91649 | 123.27428 | 31206 ft | 516 kts | 36° |
| 2026-05-03 23:08 | 15.94510 | 123.29676 | 31490 ft | 516 kts | 36° |
| 2026-05-03 23:08 | 15.97376 | 123.31928 | 31761 ft | 516 kts | 36° |
| 2026-05-03 23:09 | 16.00239 | 123.34178 | 32018 ft | 515 kts | 36° |
| 2026-05-03 23:09 | 16.03096 | 123.36425 | 32271 ft | 515 kts | 36° |
| 2026-05-03 23:09 | 16.05951 | 123.38671 | 32520 ft | 515 kts | 36° |
| 2026-05-03 23:09 | 16.08774 | 123.40893 | 32762 ft | 515 kts | 36° |
| 2026-05-03 23:10 | 16.11640 | 123.43149 | 32987 ft | 515 kts | 36° |
| 2026-05-03 23:10 | 16.14493 | 123.45395 | 33241 ft | 514 kts | 36° |
| 2026-05-03 23:10 | 16.17349 | 123.47646 | 33483 ft | 514 kts | 36° |
| 2026-05-03 23:10 | 16.20200 | 123.49893 | 33702 ft | 514 kts | 35° |
| 2026-05-03 23:11 | 16.23050 | 123.52140 | 33939 ft | 514 kts | 35° |
| 2026-05-03 23:11 | 16.25898 | 123.54387 | 34129 ft | 514 kts | 35° |
| 2026-05-03 23:11 | 16.28757 | 123.56642 | 34315 ft | 514 kts | 35° |
| 2026-05-03 23:11 | 16.31601 | 123.58887 | 34491 ft | 514 kts | 35° |
| 2026-05-03 23:12 | 16.34457 | 123.61142 | 34669 ft | 514 kts | 35° |